sensor_id;sensor_type;location;lat;lon;timestamp;pressure;altitude;pressure_sealevel;temperature;humidity
72896;BME280;61036;53.224;6.554;2023-08-08T00:09:16;101197.84;;;16.85;100.00
72896;BME280;61036;53.224;6.554;2023-08-08T00:11:45;101203.03;;;16.39;100.00
72896;BME280;61036;53.224;6.554;2023-08-08T00:14:11;101197.75;;;16.38;100.00
72896;BME280;61036;53.224;6.554;2023-08-08T00:16:36;101195.56;;;16.51;100.00
72896;BME280;61036;53.224;6.554;2023-08-08T00:19:02;101187.97;;;16.64;100.00
72896;BME280;61036;53.224;6.554;2023-08-08T00:21:28;101188.41;;;16.60;100.00
72896;BME280;61036;53.224;6.554;2023-08-08T00:23:54;101181.81;;;16.53;100.00
72896;BME280;61036;53.224;6.554;2023-08-08T00:26:19;101180.38;;;16.58;100.00
72896;BME280;61036;53.224;6.554;2023-08-08T00:28:45;101175.09;;;16.37;100.00
72896;BME280;61036;53.224;6.554;2023-08-08T00:31:10;101177.94;;;16.45;100.00
72896;BME280;61036;53.224;6.554;2023-08-08T00:33:37;101185.00;;;16.19;100.00
72896;BME280;61036;53.224;6.554;2023-08-08T00:36:03;101183.13;;;16.19;100.00
72896;BME280;61036;53.224;6.554;2023-08-08T00:38:28;101179.69;;;16.46;100.00
72896;BME280;61036;53.224;6.554;2023-08-08T00:40:54;101172.69;;;16.34;100.00
72896;BME280;61036;53.224;6.554;2023-08-08T00:43:21;101174.84;;;16.31;100.00
72896;BME280;61036;53.224;6.554;2023-08-08T00:45:46;101173.69;;;16.43;100.00
72896;BME280;61036;53.224;6.554;2023-08-08T00:48:12;101175.94;;;16.48;100.00
72896;BME280;61036;53.224;6.554;2023-08-08T00:50:42;101175.09;;;16.37;100.00
72896;BME280;61036;53.224;6.554;2023-08-08T00:53:07;101162.94;;;16.12;100.00
72896;BME280;61036;53.224;6.554;2023-08-08T00:55:33;101174.53;;;16.14;100.00
72896;BME280;61036;53.224;6.554;2023-08-08T00:57:59;101159.34;;;16.21;100.00
72896;BME280;61036;53.224;6.554;2023-08-08T01:00:24;101165.50;;;16.23;100.00
72896;BME280;61036;53.224;6.554;2023-08-08T01:02:50;101160.06;;;16.43;100.00
72896;BME280;61036;53.224;6.554;2023-08-08T01:05:15;101155.91;;;16.39;100.00
72896;BME280;61036;53.224;6.554;2023-08-08T01:07:59;101153.28;;;16.57;100.00
72896;BME280;61036;53.224;6.554;2023-08-08T01:10:39;101154.19;;;16.38;100.00
72896;BME280;61036;53.224;6.554;2023-08-08T01:13:09;101151.75;;;16.44;100.00
72896;BME280;61036;53.224;6.554;2023-08-08T01:15:36;101155.34;;;16.26;100.00
72896;BME280;61036;53.224;6.554;2023-08-08T01:18:07;101150.59;;;16.47;100.00
72896;BME280;61036;53.224;6.554;2023-08-08T01:20:34;101145.00;;;16.39;100.00
72896;BME280;61036;53.224;6.554;2023-08-08T01:25:57;101137.97;;;16.56;100.00
72896;BME280;61036;53.224;6.554;2023-08-08T01:28:25;101145.97;;;16.57;100.00
72896;BME280;61036;53.224;6.554;2023-08-08T01:30:51;101140.53;;;16.57;100.00
72896;BME280;61036;53.224;6.554;2023-08-08T01:33:20;101132.66;;;16.64;100.00
72896;BME280;61036;53.224;6.554;2023-08-08T01:36:02;101130.50;;;16.77;100.00
72896;BME280;61036;53.224;6.554;2023-08-08T01:38:34;101129.19;;;16.81;100.00
72896;BME280;61036;53.224;6.554;2023-08-08T01:41:04;101126.88;;;16.86;100.00
72896;BME280;61036;53.224;6.554;2023-08-08T01:43:30;101127.97;;;16.94;100.00
72896;BME280;61036;53.224;6.554;2023-08-08T01:45:58;101124.88;;;16.69;100.00
72896;BME280;61036;53.224;6.554;2023-08-08T01:48:24;101122.56;;;16.84;100.00
72896;BME280;61036;53.224;6.554;2023-08-08T01:50:50;101116.13;;;16.75;100.00
72896;BME280;61036;53.224;6.554;2023-08-08T01:53:16;101114.31;;;16.76;100.00
72896;BME280;61036;53.224;6.554;2023-08-08T01:55:42;101116.28;;;16.83;100.00
72896;BME280;61036;53.224;6.554;2023-08-08T01:58:07;101110.69;;;16.75;100.00
72896;BME280;61036;53.224;6.554;2023-08-08T02:00:33;101110.78;;;17.03;100.00
72896;BME280;61036;53.224;6.554;2023-08-08T02:02:58;101114.97;;;16.87;100.00
72896;BME280;61036;53.224;6.554;2023-08-08T02:05:24;101110.84;;;16.74;100.00
72896;BME280;61036;53.224;6.554;2023-08-08T02:07:49;101104.94;;;16.88;100.00
72896;BME280;61036;53.224;6.554;2023-08-08T02:10:15;101105.25;;;16.85;100.00
72896;BME280;61036;53.224;6.554;2023-08-08T02:12:40;101100.34;;;16.88;100.00
72896;BME280;61036;53.224;6.554;2023-08-08T02:15:06;101104.81;;;16.80;100.00
72896;BME280;61036;53.224;6.554;2023-08-08T02:17:32;101108.97;;;16.74;100.00
72896;BME280;61036;53.224;6.554;2023-08-08T02:19:57;101108.16;;;16.54;100.00
72896;BME280;61036;53.224;6.554;2023-08-08T02:22:24;101103.41;;;16.66;100.00
72896;BME280;61036;53.224;6.554;2023-08-08T02:24:49;101102.97;;;16.71;100.00
72896;BME280;61036;53.224;6.554;2023-08-08T02:27:15;101093.75;;;16.81;100.00
72896;BME280;61036;53.224;6.554;2023-08-08T02:29:40;101085.88;;;16.88;100.00
72896;BME280;61036;53.224;6.554;2023-08-08T02:32:06;101084.69;;;16.90;100.00
72896;BME280;61036;53.224;6.554;2023-08-08T02:34:32;101085.34;;;16.65;100.00
72896;BME280;61036;53.224;6.554;2023-08-08T02:36:57;101079.00;;;16.84;100.00
72896;BME280;61036;53.224;6.554;2023-08-08T02:39:23;101081.94;;;17.00;100.00
72896;BME280;61036;53.224;6.554;2023-08-08T02:41:48;101087.41;;;16.90;100.00
72896;BME280;61036;53.224;6.554;2023-08-08T02:44:14;101080.16;;;16.81;100.00
72896;BME280;61036;53.224;6.554;2023-08-08T02:46:40;101081.47;;;16.77;100.00
72896;BME280;61036;53.224;6.554;2023-08-08T02:49:06;101070.78;;;16.94;100.00
72896;BME280;61036;53.224;6.554;2023-08-08T02:51:31;101066.03;;;16.96;100.00
72896;BME280;61036;53.224;6.554;2023-08-08T02:53:57;101073.84;;;16.81;100.00
72896;BME280;61036;53.224;6.554;2023-08-08T02:56:22;101073.22;;;16.50;100.00
72896;BME280;61036;53.224;6.554;2023-08-08T02:58:50;101067.91;;;16.58;100.00
72896;BME280;61036;53.224;6.554;2023-08-08T03:01:15;101068.25;;;16.73;100.00
72896;BME280;61036;53.224;6.554;2023-08-08T03:03:42;101062.59;;;16.56;100.00
72896;BME280;61036;53.224;6.554;2023-08-08T03:06:08;101075.00;;;16.68;100.00
72896;BME280;61036;53.224;6.554;2023-08-08T03:08:34;101070.47;;;16.59;100.00
72896;BME280;61036;53.224;6.554;2023-08-08T03:11:00;101068.19;;;16.55;100.00
72896;BME280;61036;53.224;6.554;2023-08-08T03:13:26;101070.75;;;16.56;100.00
72896;BME280;61036;53.224;6.554;2023-08-08T03:15:53;101072.84;;;16.72;100.00
72896;BME280;61036;53.224;6.554;2023-08-08T03:18:19;101068.00;;;16.66;100.00
72896;BME280;61036;53.224;6.554;2023-08-08T03:20:45;101069.41;;;16.80;100.00
72896;BME280;61036;53.224;6.554;2023-08-08T03:23:11;101057.22;;;16.74;100.00
72896;BME280;61036;53.224;6.554;2023-08-08T03:25:38;101051.66;;;16.66;100.00
72896;BME280;61036;53.224;6.554;2023-08-08T03:28:04;101055.53;;;16.63;100.00
72896;BME280;61036;53.224;6.554;2023-08-08T03:30:31;101044.97;;;16.51;100.00
72896;BME280;61036;53.224;6.554;2023-08-08T03:32:57;101048.00;;;16.48;100.00
72896;BME280;61036;53.224;6.554;2023-08-08T03:35:26;101043.31;;;16.40;100.00
72896;BME280;61036;53.224;6.554;2023-08-08T03:37:52;101050.34;;;16.33;100.00
72896;BME280;61036;53.224;6.554;2023-08-08T03:40:17;101046.94;;;16.31;100.00
72896;BME280;61036;53.224;6.554;2023-08-08T03:42:43;101050.22;;;16.34;100.00
72896;BME280;61036;53.224;6.554;2023-08-08T03:45:09;101043.72;;;16.45;100.00
72896;BME280;61036;53.224;6.554;2023-08-08T03:47:35;101040.13;;;16.44;100.00
72896;BME280;61036;53.224;6.554;2023-08-08T03:50:00;101024.81;;;16.43;100.00
72896;BME280;61036;53.224;6.554;2023-08-08T03:52:26;101026.09;;;16.39;100.00
72896;BME280;61036;53.224;6.554;2023-08-08T03:54:52;101027.75;;;16.22;100.00
72896;BME280;61036;53.224;6.554;2023-08-08T03:57:18;101029.63;;;16.22;100.00
72896;BME280;61036;53.224;6.554;2023-08-08T03:59:43;101037.19;;;16.18;100.00
72896;BME280;61036;53.224;6.554;2023-08-08T04:02:09;101035.47;;;16.17;100.00
72896;BME280;61036;53.224;6.554;2023-08-08T04:04:34;101034.84;;;16.43;100.00
72896;BME280;61036;53.224;6.554;2023-08-08T04:07:00;101030.41;;;16.42;100.00
72896;BME280;61036;53.224;6.554;2023-08-08T04:09:25;101027.72;;;16.32;100.00
72896;BME280;61036;53.224;6.554;2023-08-08T04:11:51;101016.69;;;16.24;100.00
72896;BME280;61036;53.224;6.554;2023-08-08T04:14:16;101022.91;;;16.16;100.00
72896;BME280;61036;53.224;6.554;2023-08-08T04:16:42;101026.13;;;16.30;100.00
72896;BME280;61036;53.224;6.554;2023-08-08T04:19:07;101017.00;;;16.31;100.00
72896;BME280;61036;53.224;6.554;2023-08-08T04:21:32;101019.28;;;16.26;100.00
72896;BME280;61036;53.224;6.554;2023-08-08T04:23:59;101019.81;;;16.39;100.00
72896;BME280;61036;53.224;6.554;2023-08-08T04:26:25;101017.81;;;16.41;100.00
72896;BME280;61036;53.224;6.554;2023-08-08T04:28:51;101014.06;;;16.42;100.00
72896;BME280;61036;53.224;6.554;2023-08-08T04:31:17;101008.22;;;16.37;100.00
72896;BME280;61036;53.224;6.554;2023-08-08T04:33:43;101007.25;;;16.28;100.00
72896;BME280;61036;53.224;6.554;2023-08-08T04:36:08;101008.09;;;16.29;100.00
72896;BME280;61036;53.224;6.554;2023-08-08T04:38:34;101007.34;;;16.46;100.00
72896;BME280;61036;53.224;6.554;2023-08-08T04:40:59;101015.88;;;16.51;100.00
72896;BME280;61036;53.224;6.554;2023-08-08T04:43:25;101014.69;;;16.63;100.00
72896;BME280;61036;53.224;6.554;2023-08-08T04:45:53;101006.53;;;16.63;100.00
72896;BME280;61036;53.224;6.554;2023-08-08T04:48:18;101010.13;;;16.64;100.00
72896;BME280;61036;53.224;6.554;2023-08-08T04:50:46;101009.28;;;16.54;100.00
72896;BME280;61036;53.224;6.554;2023-08-08T04:53:11;101015.34;;;16.75;100.00
72896;BME280;61036;53.224;6.554;2023-08-08T04:55:37;101002.06;;;16.82;100.00
72896;BME280;61036;53.224;6.554;2023-08-08T04:58:03;100995.50;;;16.65;100.00
72896;BME280;61036;53.224;6.554;2023-08-08T05:00:28;101001.91;;;16.74;100.00
72896;BME280;61036;53.224;6.554;2023-08-08T05:02:54;101004.81;;;16.62;100.00
72896;BME280;61036;53.224;6.554;2023-08-08T05:05:19;101007.50;;;16.72;100.00
72896;BME280;61036;53.224;6.554;2023-08-08T05:07:46;100999.41;;;16.90;100.00
72896;BME280;61036;53.224;6.554;2023-08-08T05:10:11;101006.50;;;17.01;100.00
72896;BME280;61036;53.224;6.554;2023-08-08T05:12:37;101005.28;;;17.13;100.00
72896;BME280;61036;53.224;6.554;2023-08-08T05:15:03;100999.44;;;17.08;100.00
72896;BME280;61036;53.224;6.554;2023-08-08T05:17:30;101002.13;;;16.90;100.00
72896;BME280;61036;53.224;6.554;2023-08-08T05:19:56;101003.06;;;16.99;100.00
72896;BME280;61036;53.224;6.554;2023-08-08T05:22:22;100998.66;;;16.98;100.00
72896;BME280;61036;53.224;6.554;2023-08-08T05:24:47;100996.09;;;17.14;100.00
72896;BME280;61036;53.224;6.554;2023-08-08T05:27:13;100995.44;;;17.30;100.00
72896;BME280;61036;53.224;6.554;2023-08-08T05:29:38;100999.22;;;17.19;100.00
72896;BME280;61036;53.224;6.554;2023-08-08T05:32:05;100996.28;;;17.30;100.00
72896;BME280;61036;53.224;6.554;2023-08-08T05:34:32;100999.19;;;16.74;100.00
72896;BME280;61036;53.224;6.554;2023-08-08T05:36:58;100996.41;;;17.11;100.00
72896;BME280;61036;53.224;6.554;2023-08-08T05:39:23;100993.00;;;17.09;100.00
72896;BME280;61036;53.224;6.554;2023-08-08T05:41:49;100996.59;;;17.27;100.00
72896;BME280;61036;53.224;6.554;2023-08-08T05:44:15;100993.78;;;17.37;100.00
72896;BME280;61036;53.224;6.554;2023-08-08T05:46:43;100990.88;;;17.38;100.00
72896;BME280;61036;53.224;6.554;2023-08-08T05:49:09;100990.47;;;16.98;100.00
72896;BME280;61036;53.224;6.554;2023-08-08T05:51:34;100994.41;;;17.49;100.00
72896;BME280;61036;53.224;6.554;2023-08-08T05:54:00;100985.50;;;17.65;100.00
72896;BME280;61036;53.224;6.554;2023-08-08T05:56:28;100992.44;;;17.41;100.00
72896;BME280;61036;53.224;6.554;2023-08-08T05:58:59;100992.69;;;17.30;100.00
72896;BME280;61036;53.224;6.554;2023-08-08T06:01:24;100995.56;;;17.46;100.00
72896;BME280;61036;53.224;6.554;2023-08-08T06:03:50;100992.66;;;17.66;100.00
72896;BME280;61036;53.224;6.554;2023-08-08T06:06:15;100995.25;;;17.85;100.00
72896;BME280;61036;53.224;6.554;2023-08-08T06:08:41;100995.25;;;17.85;100.00
72896;BME280;61036;53.224;6.554;2023-08-08T06:11:06;100999.38;;;17.89;100.00
72896;BME280;61036;53.224;6.554;2023-08-08T06:13:32;100993.16;;;17.79;100.00
72896;BME280;61036;53.224;6.554;2023-08-08T06:15:58;100997.88;;;17.77;100.00
72896;BME280;61036;53.224;6.554;2023-08-08T06:18:23;100988.97;;;17.49;100.00
72896;BME280;61036;53.224;6.554;2023-08-08T06:20:49;100996.91;;;17.42;100.00
72896;BME280;61036;53.224;6.554;2023-08-08T06:23:14;101002.41;;;17.86;100.00
72896;BME280;61036;53.224;6.554;2023-08-08T06:25:40;100998.59;;;17.97;100.00
72896;BME280;61036;53.224;6.554;2023-08-08T06:28:06;100998.91;;;18.20;100.00
72896;BME280;61036;53.224;6.554;2023-08-08T06:30:31;100985.63;;;18.25;100.00
72896;BME280;61036;53.224;6.554;2023-08-08T06:32:57;100991.97;;;17.99;100.00
72896;BME280;61036;53.224;6.554;2023-08-08T06:35:22;100988.09;;;18.36;100.00
72896;BME280;61036;53.224;6.554;2023-08-08T06:37:48;100994.19;;;18.30;100.00
72896;BME280;61036;53.224;6.554;2023-08-08T06:40:14;100985.09;;;18.47;100.00
72896;BME280;61036;53.224;6.554;2023-08-08T06:42:39;100993.53;;;18.70;100.00
72896;BME280;61036;53.224;6.554;2023-08-08T06:45:06;100995.28;;;18.71;100.00
72896;BME280;61036;53.224;6.554;2023-08-08T06:47:32;100992.78;;;18.52;100.00
72896;BME280;61036;53.224;6.554;2023-08-08T06:49:57;100992.66;;;19.04;100.00
72896;BME280;61036;53.224;6.554;2023-08-08T06:52:23;100997.28;;;18.95;100.00
72896;BME280;61036;53.224;6.554;2023-08-08T06:54:48;100984.13;;;19.07;100.00
72896;BME280;61036;53.224;6.554;2023-08-08T06:57:14;100983.63;;;18.95;100.00
72896;BME280;61036;53.224;6.554;2023-08-08T06:59:39;100986.50;;;18.94;100.00
72896;BME280;61036;53.224;6.554;2023-08-08T07:02:05;100980.59;;;19.39;100.00
72896;BME280;61036;53.224;6.554;2023-08-08T07:04:31;100987.94;;;19.31;100.00
72896;BME280;61036;53.224;6.554;2023-08-08T07:06:56;100981.41;;;19.07;100.00
72896;BME280;61036;53.224;6.554;2023-08-08T07:09:22;100988.44;;;19.18;100.00
72896;BME280;61036;53.224;6.554;2023-08-08T07:11:47;100981.81;;;19.29;100.00
72896;BME280;61036;53.224;6.554;2023-08-08T07:14:13;100985.06;;;19.40;100.00
72896;BME280;61036;53.224;6.554;2023-08-08T07:16:38;100982.09;;;19.09;100.00
72896;BME280;61036;53.224;6.554;2023-08-08T07:19:04;100978.38;;;19.43;100.00
72896;BME280;61036;53.224;6.554;2023-08-08T07:21:31;100973.63;;;19.45;100.00
72896;BME280;61036;53.224;6.554;2023-08-08T07:23:57;100979.47;;;19.75;100.00
72896;BME280;61036;53.224;6.554;2023-08-08T07:26:23;100973.09;;;19.58;100.00
72896;BME280;61036;53.224;6.554;2023-08-08T07:28:48;100968.88;;;19.80;100.00
72896;BME280;61036;53.224;6.554;2023-08-08T07:31:14;100965.25;;;19.87;100.00
72896;BME280;61036;53.224;6.554;2023-08-08T07:33:39;100967.59;;;20.23;100.00
72896;BME280;61036;53.224;6.554;2023-08-08T07:36:04;100958.53;;;20.15;100.00
72896;BME280;61036;53.224;6.554;2023-08-08T07:38:30;100961.75;;;20.26;100.00
72896;BME280;61036;53.224;6.554;2023-08-08T07:40:55;100957.88;;;20.68;100.00
72896;BME280;61036;53.224;6.554;2023-08-08T07:43:21;100959.44;;;19.99;100.00
72896;BME280;61036;53.224;6.554;2023-08-08T07:45:46;100957.63;;;20.30;100.00
72896;BME280;61036;53.224;6.554;2023-08-08T07:48:12;100956.25;;;20.43;100.00
72896;BME280;61036;53.224;6.554;2023-08-08T07:50:37;100961.59;;;20.75;100.00
72896;BME280;61036;53.224;6.554;2023-08-08T07:53:03;100964.28;;;20.44;100.00
72896;BME280;61036;53.224;6.554;2023-08-08T07:55:29;100958.34;;;20.24;100.00
72896;BME280;61036;53.224;6.554;2023-08-08T07:57:54;100959.28;;;19.76;100.00
72896;BME280;61036;53.224;6.554;2023-08-08T08:00:19;100965.09;;;19.81;100.00
72896;BME280;61036;53.224;6.554;2023-08-08T08:02:45;100961.59;;;20.28;100.00
72896;BME280;61036;53.224;6.554;2023-08-08T08:05:12;100969.16;;;20.09;100.00
72896;BME280;61036;53.224;6.554;2023-08-08T08:07:39;100956.22;;;20.59;100.00
72896;BME280;61036;53.224;6.554;2023-08-08T08:10:07;100964.69;;;20.72;100.00
72896;BME280;61036;53.224;6.554;2023-08-08T08:12:34;100971.06;;;19.76;100.00
72896;BME280;61036;53.224;6.554;2023-08-08T08:15:00;100980.81;;;19.95;100.00
72896;BME280;61036;53.224;6.554;2023-08-08T08:17:26;100969.50;;;20.15;100.00
72896;BME280;61036;53.224;6.554;2023-08-08T08:19:53;100979.53;;;20.39;100.00
72896;BME280;61036;53.224;6.554;2023-08-08T08:22:19;100972.44;;;19.88;100.00
72896;BME280;61036;53.224;6.554;2023-08-08T08:24:44;100970.53;;;20.14;100.00
72896;BME280;61036;53.224;6.554;2023-08-08T08:27:12;100969.00;;;20.11;100.00
72896;BME280;61036;53.224;6.554;2023-08-08T08:29:37;100976.72;;;19.99;100.00
72896;BME280;61036;53.224;6.554;2023-08-08T08:32:03;100971.75;;;19.70;100.00
72896;BME280;61036;53.224;6.554;2023-08-08T08:34:29;100960.63;;;19.47;100.00
72896;BME280;61036;53.224;6.554;2023-08-08T08:36:54;100970.69;;;20.12;100.00
72896;BME280;61036;53.224;6.554;2023-08-08T08:39:20;100970.88;;;20.02;100.00
72896;BME280;61036;53.224;6.554;2023-08-08T08:41:48;100962.22;;;20.46;100.00
72896;BME280;61036;53.224;6.554;2023-08-08T08:44:16;100962.00;;;19.92;100.00
72896;BME280;61036;53.224;6.554;2023-08-08T08:46:42;100961.06;;;20.24;100.00
72896;BME280;61036;53.224;6.554;2023-08-08T08:49:09;100963.88;;;20.08;100.00
72896;BME280;61036;53.224;6.554;2023-08-08T08:51:38;100959.28;;;20.64;100.00
72896;BME280;61036;53.224;6.554;2023-08-08T08:54:07;100953.31;;;21.46;100.00
72896;BME280;61036;53.224;6.554;2023-08-08T08:56:33;100950.50;;;22.45;100.00
72896;BME280;61036;53.224;6.554;2023-08-08T08:58:59;100947.72;;;20.77;100.00
72896;BME280;61036;53.224;6.554;2023-08-08T09:01:25;100953.66;;;20.41;100.00
72896;BME280;61036;53.224;6.554;2023-08-08T09:03:52;100947.41;;;20.72;100.00
72896;BME280;61036;53.224;6.554;2023-08-08T09:06:18;100959.19;;;22.33;100.00
72896;BME280;61036;53.224;6.554;2023-08-08T09:08:46;100942.03;;;22.31;100.00
72896;BME280;61036;53.224;6.554;2023-08-08T09:11:12;100952.72;;;21.05;100.00
72896;BME280;61036;53.224;6.554;2023-08-08T09:13:41;100968.47;;;20.71;100.00
72896;BME280;61036;53.224;6.554;2023-08-08T09:16:07;100965.44;;;20.97;100.00
72896;BME280;61036;53.224;6.554;2023-08-08T09:18:37;100967.22;;;21.13;100.00
72896;BME280;61036;53.224;6.554;2023-08-08T09:21:04;100963.97;;;21.64;100.00
72896;BME280;61036;53.224;6.554;2023-08-08T09:23:30;100969.00;;;22.13;100.00
72896;BME280;61036;53.224;6.554;2023-08-08T09:25:55;100965.53;;;22.78;100.00
72896;BME280;61036;53.224;6.554;2023-08-08T09:28:21;100973.06;;;22.91;100.00
72896;BME280;61036;53.224;6.554;2023-08-08T09:30:47;100963.53;;;23.66;100.00
72896;BME280;61036;53.224;6.554;2023-08-08T09:33:12;100963.47;;;22.21;100.00
72896;BME280;61036;53.224;6.554;2023-08-08T09:35:38;100957.03;;;21.91;100.00
72896;BME280;61036;53.224;6.554;2023-08-08T09:38:04;100949.94;;;21.36;100.00
72896;BME280;61036;53.224;6.554;2023-08-08T09:40:30;100949.94;;;21.59;100.00
72896;BME280;61036;53.224;6.554;2023-08-08T09:42:57;100950.00;;;21.74;100.00
72896;BME280;61036;53.224;6.554;2023-08-08T09:45:24;100942.19;;;23.47;100.00
72896;BME280;61036;53.224;6.554;2023-08-08T09:47:50;100937.50;;;23.69;100.00
72896;BME280;61036;53.224;6.554;2023-08-08T09:50:17;100950.19;;;24.13;100.00
72896;BME280;61036;53.224;6.554;2023-08-08T09:52:44;100947.16;;;23.80;100.00
72896;BME280;61036;53.224;6.554;2023-08-08T09:55:11;100951.53;;;23.52;100.00
72896;BME280;61036;53.224;6.554;2023-08-08T09:57:38;100950.66;;;22.28;100.00
72896;BME280;61036;53.224;6.554;2023-08-08T10:00:06;100967.22;;;21.67;100.00
72896;BME280;61036;53.224;6.554;2023-08-08T10:02:36;100983.91;;;19.92;100.00
72896;BME280;61036;53.224;6.554;2023-08-08T10:05:04;101002.22;;;19.75;100.00
72896;BME280;61036;53.224;6.554;2023-08-08T10:07:29;101016.53;;;19.61;100.00
72896;BME280;61036;53.224;6.554;2023-08-08T10:09:56;101019.38;;;18.50;100.00
72896;BME280;61036;53.224;6.554;2023-08-08T10:12:23;101014.81;;;18.85;100.00
72896;BME280;61036;53.224;6.554;2023-08-08T10:14:50;101013.81;;;18.60;100.00
72896;BME280;61036;53.224;6.554;2023-08-08T10:17:18;101007.31;;;18.95;100.00
72896;BME280;61036;53.224;6.554;2023-08-08T10:19:51;101002.69;;;19.62;100.00
72896;BME280;61036;53.224;6.554;2023-08-08T10:22:20;100999.88;;;21.00;100.00
72896;BME280;61036;53.224;6.554;2023-08-08T10:24:47;100996.31;;;20.44;100.00
72896;BME280;61036;53.224;6.554;2023-08-08T10:27:13;100996.31;;;20.36;100.00
72896;BME280;61036;53.224;6.554;2023-08-08T10:29:40;100995.22;;;18.89;100.00
72896;BME280;61036;53.224;6.554;2023-08-08T10:32:06;100994.25;;;19.31;100.00
72896;BME280;61036;53.224;6.554;2023-08-08T10:34:43;100990.03;;;19.45;100.00
72896;BME280;61036;53.224;6.554;2023-08-08T10:37:10;100986.47;;;19.85;100.00
72896;BME280;61036;53.224;6.554;2023-08-08T10:39:36;100980.09;;;20.09;100.00
72896;BME280;61036;53.224;6.554;2023-08-08T10:42:05;100975.63;;;20.81;100.00
72896;BME280;61036;53.224;6.554;2023-08-08T10:44:31;100986.84;;;20.63;100.00
72896;BME280;61036;53.224;6.554;2023-08-08T10:46:56;100977.97;;;20.92;100.00
72896;BME280;61036;53.224;6.554;2023-08-08T10:49:22;100965.03;;;21.32;100.00
72896;BME280;61036;53.224;6.554;2023-08-08T10:51:50;100982.47;;;20.37;100.00
72896;BME280;61036;53.224;6.554;2023-08-08T10:54:24;100984.31;;;21.92;100.00
72896;BME280;61036;53.224;6.554;2023-08-08T10:56:58;100976.91;;;21.55;100.00
72896;BME280;61036;53.224;6.554;2023-08-08T10:59:37;100997.03;;;22.08;100.00
72896;BME280;61036;53.224;6.554;2023-08-08T11:02:03;100984.97;;;22.32;100.00
72896;BME280;61036;53.224;6.554;2023-08-08T11:04:29;100973.94;;;23.07;100.00
72896;BME280;61036;53.224;6.554;2023-08-08T11:06:56;100979.19;;;22.27;100.00
72896;BME280;61036;53.224;6.554;2023-08-08T11:09:23;100989.59;;;22.17;100.00
72896;BME280;61036;53.224;6.554;2023-08-08T11:11:49;100986.09;;;21.62;100.00
72896;BME280;61036;53.224;6.554;2023-08-08T11:14:17;100966.47;;;22.41;100.00
72896;BME280;61036;53.224;6.554;2023-08-08T11:16:45;100982.09;;;22.26;100.00
72896;BME280;61036;53.224;6.554;2023-08-08T11:19:11;100978.81;;;21.92;100.00
72896;BME280;61036;53.224;6.554;2023-08-08T11:21:41;100974.63;;;21.82;100.00
72896;BME280;61036;53.224;6.554;2023-08-08T11:24:08;100978.66;;;21.71;100.00
72896;BME280;61036;53.224;6.554;2023-08-08T11:26:35;100970.88;;;21.98;100.00
72896;BME280;61036;53.224;6.554;2023-08-08T11:29:02;100980.19;;;22.11;100.00
72896;BME280;61036;53.224;6.554;2023-08-08T11:31:28;100992.09;;;22.56;100.00
72896;BME280;61036;53.224;6.554;2023-08-08T11:33:58;100969.38;;;22.10;100.00
72896;BME280;61036;53.224;6.554;2023-08-08T11:36:31;100985.47;;;22.51;100.00
72896;BME280;61036;53.224;6.554;2023-08-08T11:39:00;100991.59;;;22.53;100.00
72896;BME280;61036;53.224;6.554;2023-08-08T11:41:25;100986.53;;;22.12;100.00
72896;BME280;61036;53.224;6.554;2023-08-08T11:43:52;100984.78;;;21.58;100.00
72896;BME280;61036;53.224;6.554;2023-08-08T11:46:19;100981.66;;;21.84;100.00
72896;BME280;61036;53.224;6.554;2023-08-08T11:48:47;100966.19;;;21.83;100.00
72896;BME280;61036;53.224;6.554;2023-08-08T11:51:14;100984.91;;;21.11;100.00
72896;BME280;61036;53.224;6.554;2023-08-08T11:53:53;100995.69;;;21.66;100.00
72896;BME280;61036;53.224;6.554;2023-08-08T11:56:19;100979.72;;;21.70;100.00
72896;BME280;61036;53.224;6.554;2023-08-08T11:58:45;100987.44;;;22.27;100.00
72896;BME280;61036;53.224;6.554;2023-08-08T12:01:11;100995.38;;;22.37;100.00
72896;BME280;61036;53.224;6.554;2023-08-08T12:03:40;100990.81;;;21.54;100.00
72896;BME280;61036;53.224;6.554;2023-08-08T12:06:13;100993.75;;;21.21;100.00
72896;BME280;61036;53.224;6.554;2023-08-08T12:08:40;100982.34;;;21.09;100.00
72896;BME280;61036;53.224;6.554;2023-08-08T12:11:08;101000.81;;;22.60;100.00
72896;BME280;61036;53.224;6.554;2023-08-08T12:13:37;100979.81;;;22.14;100.00
72896;BME280;61036;53.224;6.554;2023-08-08T12:16:05;100999.28;;;22.05;100.00
72896;BME280;61036;53.224;6.554;2023-08-08T12:18:32;101005.09;;;21.49;100.00
72896;BME280;61036;53.224;6.554;2023-08-08T12:20:58;101004.78;;;21.13;100.00
72896;BME280;61036;53.224;6.554;2023-08-08T12:23:25;101007.75;;;21.03;100.00
72896;BME280;61036;53.224;6.554;2023-08-08T12:25:51;101013.88;;;21.05;100.00
72896;BME280;61036;53.224;6.554;2023-08-08T12:28:17;101013.31;;;20.78;100.00
72896;BME280;61036;53.224;6.554;2023-08-08T12:30:42;100996.09;;;21.01;100.00
72896;BME280;61036;53.224;6.554;2023-08-08T12:33:08;100996.91;;;21.33;100.00
72896;BME280;61036;53.224;6.554;2023-08-08T12:35:33;100997.88;;;21.17;100.00
72896;BME280;61036;53.224;6.554;2023-08-08T12:37:59;101011.56;;;21.25;100.00
72896;BME280;61036;53.224;6.554;2023-08-08T12:40:24;101010.78;;;21.08;100.00
72896;BME280;61036;53.224;6.554;2023-08-08T12:42:50;101021.38;;;20.80;100.00
72896;BME280;61036;53.224;6.554;2023-08-08T12:45:16;101022.16;;;21.59;100.00
72896;BME280;61036;53.224;6.554;2023-08-08T12:47:46;101013.94;;;21.36;100.00